sensor_id;sensor_type;location;lat;lon;timestamp;temperature;humidity
69938;DHT22;57248;47.320;15.998;2023-05-02T00:00:40;9.46;88.84
69938;DHT22;57248;47.320;15.998;2023-05-02T00:03:12;9.53;88.42
69938;DHT22;57248;47.320;15.998;2023-05-02T00:05:44;9.46;88.18
69938;DHT22;57248;47.320;15.998;2023-05-02T00:08:16;9.48;87.77
69938;DHT22;57248;47.320;15.998;2023-05-02T00:10:48;9.46;87.35
69938;DHT22;57248;47.320;15.998;2023-05-02T00:13:20;9.39;87.86
69938;DHT22;57248;47.320;15.998;2023-05-02T00:15:59;9.34;88.11
69938;DHT22;57248;47.320;15.998;2023-05-02T00:18:31;9.36;88.29
69938;DHT22;57248;47.320;15.998;2023-05-02T00:21:03;9.36;88.37
69938;DHT22;57248;47.320;15.998;2023-05-02T00:23:35;9.37;88.31
69938;DHT22;57248;47.320;15.998;2023-05-02T00:26:08;9.30;87.97
69938;DHT22;57248;47.320;15.998;2023-05-02T00:28:41;9.29;87.81
69938;DHT22;57248;47.320;15.998;2023-05-02T00:31:14;9.23;88.64
69938;DHT22;57248;47.320;15.998;2023-05-02T00:33:47;9.23;88.44
69938;DHT22;57248;47.320;15.998;2023-05-02T00:36:19;9.18;89.60
69938;DHT22;57248;47.320;15.998;2023-05-02T00:38:45;9.15;89.90
69938;DHT22;57248;47.320;15.998;2023-05-02T00:41:17;9.11;90.09
69938;DHT22;57248;47.320;15.998;2023-05-02T00:43:49;9.11;89.93
69938;DHT22;57248;47.320;15.998;2023-05-02T00:46:21;9.09;89.88
69938;DHT22;57248;47.320;15.998;2023-05-02T00:48:53;9.11;89.80
69938;DHT22;57248;47.320;15.998;2023-05-02T00:51:25;9.09;89.16
69938;DHT22;57248;47.320;15.998;2023-05-02T00:53:59;9.09;89.05
69938;DHT22;57248;47.320;15.998;2023-05-02T00:56:31;9.03;88.56
69938;DHT22;57248;47.320;15.998;2023-05-02T00:59:04;9.01;88.79
69938;DHT22;57248;47.320;15.998;2023-05-02T01:07:44;8.99;89.55
69938;DHT22;57248;47.320;15.998;2023-05-02T01:13:09;8.91;90.11
69938;DHT22;57248;47.320;15.998;2023-05-02T01:15:43;8.91;89.41
69938;DHT22;57248;47.320;15.998;2023-05-02T01:18:25;8.82;88.92
69938;DHT22;57248;47.320;15.998;2023-05-02T01:21:03;8.78;89.82
69938;DHT22;57248;47.320;15.998;2023-05-02T01:23:45;8.69;89.83
69938;DHT22;57248;47.320;15.998;2023-05-02T01:29:07;8.67;91.03
69938;DHT22;57248;47.320;15.998;2023-05-02T01:31:42;8.72;90.87
69938;DHT22;57248;47.320;15.998;2023-05-02T01:34:17;8.72;90.77
69938;DHT22;57248;47.320;15.998;2023-05-02T01:36:51;8.65;90.98
69938;DHT22;57248;47.320;15.998;2023-05-02T01:39:25;8.65;90.64
69938;DHT22;57248;47.320;15.998;2023-05-02T01:42:00;8.60;90.04
69938;DHT22;57248;47.320;15.998;2023-05-02T01:44:34;8.47;89.93
69938;DHT22;57248;47.320;15.998;2023-05-02T01:47:08;8.43;89.66
69938;DHT22;57248;47.320;15.998;2023-05-02T01:49:41;8.38;89.35
69938;DHT22;57248;47.320;15.998;2023-05-02T01:52:15;8.34;89.82
69938;DHT22;57248;47.320;15.998;2023-05-02T01:54:50;8.30;90.56
69938;DHT22;57248;47.320;15.998;2023-05-02T01:57:22;8.31;91.55
69938;DHT22;57248;47.320;15.998;2023-05-02T01:59:56;8.34;92.28
69938;DHT22;57248;47.320;15.998;2023-05-02T02:02:50;8.34;92.03
69938;DHT22;57248;47.320;15.998;2023-05-02T02:05:23;8.30;91.73
69938;DHT22;57248;47.320;15.998;2023-05-02T02:07:55;8.24;92.32
69938;DHT22;57248;47.320;15.998;2023-05-02T02:10:30;8.30;91.96
69938;DHT22;57248;47.320;15.998;2023-05-02T02:13:18;8.27;91.04
69938;DHT22;57248;47.320;15.998;2023-05-02T02:15:56;8.16;90.69
69938;DHT22;57248;47.320;15.998;2023-05-02T02:18:34;8.12;90.50
69938;DHT22;57248;47.320;15.998;2023-05-02T02:21:08;8.04;90.10
69938;DHT22;57248;47.320;15.998;2023-05-02T02:23:42;8.03;90.50
69938;DHT22;57248;47.320;15.998;2023-05-02T02:26:16;8.06;90.69
69938;DHT22;57248;47.320;15.998;2023-05-02T02:28:52;8.17;91.18
69938;DHT22;57248;47.320;15.998;2023-05-02T02:31:32;8.17;91.87
69938;DHT22;57248;47.320;15.998;2023-05-02T02:34:04;8.17;92.21
69938;DHT22;57248;47.320;15.998;2023-05-02T02:36:46;8.20;92.01
69938;DHT22;57248;47.320;15.998;2023-05-02T02:42:11;8.30;92.01
69938;DHT22;57248;47.320;15.998;2023-05-02T02:45:00;8.24;91.61
69938;DHT22;57248;47.320;15.998;2023-05-02T02:50:35;8.17;91.81
69938;DHT22;57248;47.320;15.998;2023-05-02T02:53:08;8.14;91.53
69938;DHT22;57248;47.320;15.998;2023-05-02T02:58:54;8.17;91.63
69938;DHT22;57248;47.320;15.998;2023-05-02T03:01:30;8.23;91.92
69938;DHT22;57248;47.320;15.998;2023-05-02T03:04:04;8.23;91.75
69938;DHT22;57248;47.320;15.998;2023-05-02T03:06:37;8.22;92.40
69938;DHT22;57248;47.320;15.998;2023-05-02T03:09:04;8.17;91.97
69938;DHT22;57248;47.320;15.998;2023-05-02T03:11:36;8.13;92.50
69938;DHT22;57248;47.320;15.998;2023-05-02T03:14:08;8.19;91.76
69938;DHT22;57248;47.320;15.998;2023-05-02T03:16:47;8.22;92.37
69938;DHT22;57248;47.320;15.998;2023-05-02T03:19:20;8.24;92.55
69938;DHT22;57248;47.320;15.998;2023-05-02T03:21:53;8.23;92.20
69938;DHT22;57248;47.320;15.998;2023-05-02T03:24:24;8.24;92.23
69938;DHT22;57248;47.320;15.998;2023-05-02T03:26:55;8.30;92.35
69938;DHT22;57248;47.320;15.998;2023-05-02T03:29:33;8.29;92.91
69938;DHT22;57248;47.320;15.998;2023-05-02T03:32:04;8.30;93.09
69938;DHT22;57248;47.320;15.998;2023-05-02T03:34:38;8.29;91.63
69938;DHT22;57248;47.320;15.998;2023-05-02T03:37:10;8.31;92.38
69938;DHT22;57248;47.320;15.998;2023-05-02T03:39:41;8.37;92.55
69938;DHT22;57248;47.320;15.998;2023-05-02T03:42:13;8.45;92.51
69938;DHT22;57248;47.320;15.998;2023-05-02T03:44:45;8.57;93.37
69938;DHT22;57248;47.320;15.998;2023-05-02T03:47:17;8.68;92.82
69938;DHT22;57248;47.320;15.998;2023-05-02T03:49:50;8.68;92.60
69938;DHT22;57248;47.320;15.998;2023-05-02T03:52:24;8.79;92.80
69938;DHT22;57248;47.320;15.998;2023-05-02T03:54:56;8.92;92.65
69938;DHT22;57248;47.320;15.998;2023-05-02T03:57:29;8.98;92.22
69938;DHT22;57248;47.320;15.998;2023-05-02T04:00:01;8.93;92.05
69938;DHT22;57248;47.320;15.998;2023-05-02T04:02:47;8.93;92.20
69938;DHT22;57248;47.320;15.998;2023-05-02T04:05:23;8.98;91.98
69938;DHT22;57248;47.320;15.998;2023-05-02T04:07:56;9.13;91.36
69938;DHT22;57248;47.320;15.998;2023-05-02T04:10:28;9.20;91.56
69938;DHT22;57248;47.320;15.998;2023-05-02T04:12:57;9.29;91.21
69938;DHT22;57248;47.320;15.998;2023-05-02T04:15:31;9.42;90.41
69938;DHT22;57248;47.320;15.998;2023-05-02T04:18:04;9.43;91.01
69938;DHT22;57248;47.320;15.998;2023-05-02T04:20:36;9.51;90.93
69938;DHT22;57248;47.320;15.998;2023-05-02T04:23:08;9.63;90.19
69938;DHT22;57248;47.320;15.998;2023-05-02T04:25:40;9.73;90.05
69938;DHT22;57248;47.320;15.998;2023-05-02T04:28:12;9.87;89.33
69938;DHT22;57248;47.320;15.998;2023-05-02T04:30:38;10.02;89.29
69938;DHT22;57248;47.320;15.998;2023-05-02T04:33:11;10.16;88.94
69938;DHT22;57248;47.320;15.998;2023-05-02T04:35:44;10.28;88.92
69938;DHT22;57248;47.320;15.998;2023-05-02T04:38:17;10.38;88.76
69938;DHT22;57248;47.320;15.998;2023-05-02T04:40:50;10.59;88.12
69938;DHT22;57248;47.320;15.998;2023-05-02T04:43:31;10.73;88.43
69938;DHT22;57248;47.320;15.998;2023-05-02T04:46:02;10.80;88.57
69938;DHT22;57248;47.320;15.998;2023-05-02T04:48:37;10.99;88.51
69938;DHT22;57248;47.320;15.998;2023-05-02T04:51:12;11.22;88.38
69938;DHT22;57248;47.320;15.998;2023-05-02T04:53:47;11.45;87.55
69938;DHT22;57248;47.320;15.998;2023-05-02T04:56:19;11.51;87.27
69938;DHT22;57248;47.320;15.998;2023-05-02T04:58:52;11.57;87.00
69938;DHT22;57248;47.320;15.998;2023-05-02T05:01:24;11.61;86.85
69938;DHT22;57248;47.320;15.998;2023-05-02T05:03:53;11.73;87.33
69938;DHT22;57248;47.320;15.998;2023-05-02T05:06:25;11.82;86.80
69938;DHT22;57248;47.320;15.998;2023-05-02T05:08:58;12.10;86.35
69938;DHT22;57248;47.320;15.998;2023-05-02T05:11:33;12.21;85.76
69938;DHT22;57248;47.320;15.998;2023-05-02T05:14:12;12.37;85.58
69938;DHT22;57248;47.320;15.998;2023-05-02T05:16:48;12.44;86.30
69938;DHT22;57248;47.320;15.998;2023-05-02T05:19:22;12.65;85.90
69938;DHT22;57248;47.320;15.998;2023-05-02T05:21:55;12.89;82.68
69938;DHT22;57248;47.320;15.998;2023-05-02T05:24:27;13.13;81.36
69938;DHT22;57248;47.320;15.998;2023-05-02T05:26:59;13.36;79.90
69938;DHT22;57248;47.320;15.998;2023-05-02T05:29:32;13.47;79.41
69938;DHT22;57248;47.320;15.998;2023-05-02T05:32:04;13.60;77.45
69938;DHT22;57248;47.320;15.998;2023-05-02T05:34:37;13.73;76.12
69938;DHT22;57248;47.320;15.998;2023-05-02T05:37:09;13.77;76.19
69938;DHT22;57248;47.320;15.998;2023-05-02T05:39:41;13.91;75.81
69938;DHT22;57248;47.320;15.998;2023-05-02T05:42:07;13.97;74.40
69938;DHT22;57248;47.320;15.998;2023-05-02T05:44:43;14.11;74.45
69938;DHT22;57248;47.320;15.998;2023-05-02T05:47:08;14.18;74.33
69938;DHT22;57248;47.320;15.998;2023-05-02T05:49:40;14.32;73.88
69938;DHT22;57248;47.320;15.998;2023-05-02T05:52:12;14.39;74.22
69938;DHT22;57248;47.320;15.998;2023-05-02T05:54:44;14.45;73.00
69938;DHT22;57248;47.320;15.998;2023-05-02T05:57:10;14.50;72.60
69938;DHT22;57248;47.320;15.998;2023-05-02T05:59:43;14.65;73.48
69938;DHT22;57248;47.320;15.998;2023-05-02T06:02:16;14.67;72.52
69938;DHT22;57248;47.320;15.998;2023-05-02T06:04:48;14.76;72.60
69938;DHT22;57248;47.320;15.998;2023-05-02T06:07:28;14.76;73.72
69938;DHT22;57248;47.320;15.998;2023-05-02T06:10:00;14.76;73.76
69938;DHT22;57248;47.320;15.998;2023-05-02T06:12:40;14.97;72.70
69938;DHT22;57248;47.320;15.998;2023-05-02T06:15:24;15.20;73.38
69938;DHT22;57248;47.320;15.998;2023-05-02T06:17:55;15.28;73.67
69938;DHT22;57248;47.320;15.998;2023-05-02T06:20:29;15.39;73.68
69938;DHT22;57248;47.320;15.998;2023-05-02T06:23:01;15.57;73.24
69938;DHT22;57248;47.320;15.998;2023-05-02T06:25:36;15.92;72.51
69938;DHT22;57248;47.320;15.998;2023-05-02T06:28:09;16.09;71.04
69938;DHT22;57248;47.320;15.998;2023-05-02T06:30:41;16.38;70.42
69938;DHT22;57248;47.320;15.998;2023-05-02T06:33:13;16.77;70.72
69938;DHT22;57248;47.320;15.998;2023-05-02T06:35:50;16.89;69.18
69938;DHT22;57248;47.320;15.998;2023-05-02T06:38:23;17.16;67.80
69938;DHT22;57248;47.320;15.998;2023-05-02T06:40:54;17.19;67.70
69938;DHT22;57248;47.320;15.998;2023-05-02T06:43:26;17.30;66.69
69938;DHT22;57248;47.320;15.998;2023-05-02T06:45:59;17.77;66.13
69938;DHT22;57248;47.320;15.998;2023-05-02T06:48:31;17.84;66.38
69938;DHT22;57248;47.320;15.998;2023-05-02T06:51:03;17.51;65.39
69938;DHT22;57248;47.320;15.998;2023-05-02T06:53:35;17.54;64.75
69938;DHT22;57248;47.320;15.998;2023-05-02T06:56:07;17.29;63.27
69938;DHT22;57248;47.320;15.998;2023-05-02T06:58:39;17.83;64.00
69938;DHT22;57248;47.320;15.998;2023-05-02T07:01:11;17.67;63.66
69938;DHT22;57248;47.320;15.998;2023-05-02T07:03:45;17.91;62.53
69938;DHT22;57248;47.320;15.998;2023-05-02T07:06:16;17.98;63.49
69938;DHT22;57248;47.320;15.998;2023-05-02T07:08:48;18.25;62.36
69938;DHT22;57248;47.320;15.998;2023-05-02T07:11:20;18.28;62.05
69938;DHT22;57248;47.320;15.998;2023-05-02T07:14:01;18.01;61.47
69938;DHT22;57248;47.320;15.998;2023-05-02T07:16:34;18.53;60.11
69938;DHT22;57248;47.320;15.998;2023-05-02T07:19:07;18.48;60.60
69938;DHT22;57248;47.320;15.998;2023-05-02T07:21:39;18.34;60.71
69938;DHT22;57248;47.320;15.998;2023-05-02T07:24:11;18.36;61.06
69938;DHT22;57248;47.320;15.998;2023-05-02T07:26:43;18.29;60.37
69938;DHT22;57248;47.320;15.998;2023-05-02T07:29:15;18.60;59.91
69938;DHT22;57248;47.320;15.998;2023-05-02T07:31:47;18.80;60.58
69938;DHT22;57248;47.320;15.998;2023-05-02T07:34:19;18.65;58.43
69938;DHT22;57248;47.320;15.998;2023-05-02T07:36:51;18.53;60.41
69938;DHT22;57248;47.320;15.998;2023-05-02T07:39:24;18.59;59.80
69938;DHT22;57248;47.320;15.998;2023-05-02T07:41:56;18.24;60.62
69938;DHT22;57248;47.320;15.998;2023-05-02T07:44:22;18.36;59.87
69938;DHT22;57248;47.320;15.998;2023-05-02T07:46:55;18.62;58.43
69938;DHT22;57248;47.320;15.998;2023-05-02T07:49:26;18.70;59.07
69938;DHT22;57248;47.320;15.998;2023-05-02T07:51:58;18.63;60.51
69938;DHT22;57248;47.320;15.998;2023-05-02T07:54:30;18.89;58.20
69938;DHT22;57248;47.320;15.998;2023-05-02T07:57:02;18.49;60.65
69938;DHT22;57248;47.320;15.998;2023-05-02T07:59:35;18.22;61.04
69938;DHT22;57248;47.320;15.998;2023-05-02T08:02:07;17.56;63.37
69938;DHT22;57248;47.320;15.998;2023-05-02T08:04:39;17.22;64.45
69938;DHT22;57248;47.320;15.998;2023-05-02T08:07:11;16.95;66.38
69938;DHT22;57248;47.320;15.998;2023-05-02T08:09:50;16.96;66.99
69938;DHT22;57248;47.320;15.998;2023-05-02T08:12:22;17.33;64.95
69938;DHT22;57248;47.320;15.998;2023-05-02T08:14:55;17.54;65.70
69938;DHT22;57248;47.320;15.998;2023-05-02T08:17:27;18.11;66.24
69938;DHT22;57248;47.320;15.998;2023-05-02T08:20:00;18.49;64.98
69938;DHT22;57248;47.320;15.998;2023-05-02T08:22:32;19.31;67.19
69938;DHT22;57248;47.320;15.998;2023-05-02T08:25:05;19.14;65.83
69938;DHT22;57248;47.320;15.998;2023-05-02T08:27:38;19.72;63.82
69938;DHT22;57248;47.320;15.998;2023-05-02T08:30:11;20.29;63.42
69938;DHT22;57248;47.320;15.998;2023-05-02T08:32:44;20.90;63.18
69938;DHT22;57248;47.320;15.998;2023-05-02T08:35:16;21.66;63.66
69938;DHT22;57248;47.320;15.998;2023-05-02T08:37:48;21.87;62.30
69938;DHT22;57248;47.320;15.998;2023-05-02T08:40:21;22.07;63.45
69938;DHT22;57248;47.320;15.998;2023-05-02T08:42:53;21.87;64.26
69938;DHT22;57248;47.320;15.998;2023-05-02T08:45:30;22.73;63.07
69938;DHT22;57248;47.320;15.998;2023-05-02T08:48:10;22.99;59.65
69938;DHT22;57248;47.320;15.998;2023-05-02T08:50:43;22.53;61.77
69938;DHT22;57248;47.320;15.998;2023-05-02T08:53:18;22.95;57.89
69938;DHT22;57248;47.320;15.998;2023-05-02T08:55:50;23.21;57.99
69938;DHT22;57248;47.320;15.998;2023-05-02T08:58:16;23.13;55.62
69938;DHT22;57248;47.320;15.998;2023-05-02T09:00:48;22.93;54.12
69938;DHT22;57248;47.320;15.998;2023-05-02T09:03:38;22.88;57.68
69938;DHT22;57248;47.320;15.998;2023-05-02T09:06:14;23.19;54.29
69938;DHT22;57248;47.320;15.998;2023-05-02T09:08:54;22.35;54.73
69938;DHT22;57248;47.320;15.998;2023-05-02T09:11:20;22.37;52.87
69938;DHT22;57248;47.320;15.998;2023-05-02T09:13:59;21.15;57.32
69938;DHT22;57248;47.320;15.998;2023-05-02T09:16:38;20.33;57.22
69938;DHT22;57248;47.320;15.998;2023-05-02T09:19:22;20.22;56.78
69938;DHT22;57248;47.320;15.998;2023-05-02T09:21:59;20.48;59.60
69938;DHT22;57248;47.320;15.998;2023-05-02T09:24:35;20.75;55.93
69938;DHT22;57248;47.320;15.998;2023-05-02T09:27:08;20.70;57.15
69938;DHT22;57248;47.320;15.998;2023-05-02T09:29:40;20.72;56.69
69938;DHT22;57248;47.320;15.998;2023-05-02T09:32:16;21.28;54.70
69938;DHT22;57248;47.320;15.998;2023-05-02T09:35:04;21.26;55.95
69938;DHT22;57248;47.320;15.998;2023-05-02T09:37:37;21.49;58.13
69938;DHT22;57248;47.320;15.998;2023-05-02T09:40:10;21.31;56.79
69938;DHT22;57248;47.320;15.998;2023-05-02T09:42:41;20.54;55.35
69938;DHT22;57248;47.320;15.998;2023-05-02T09:45:20;20.37;55.63
69938;DHT22;57248;47.320;15.998;2023-05-02T09:47:53;20.17;59.67
69938;DHT22;57248;47.320;15.998;2023-05-02T09:50:35;20.37;56.98
69938;DHT22;57248;47.320;15.998;2023-05-02T09:53:08;19.75;56.96
69938;DHT22;57248;47.320;15.998;2023-05-02T09:55:40;19.90;58.34
69938;DHT22;57248;47.320;15.998;2023-05-02T09:58:22;19.75;57.16
69938;DHT22;57248;47.320;15.998;2023-05-02T10:00:54;19.41;58.43
69938;DHT22;57248;47.320;15.998;2023-05-02T10:03:27;19.04;58.40
69938;DHT22;57248;47.320;15.998;2023-05-02T10:05:59;19.28;60.28
69938;DHT22;57248;47.320;15.998;2023-05-02T10:08:32;19.50;59.71
69938;DHT22;57248;47.320;15.998;2023-05-02T10:11:07;19.59;58.48
69938;DHT22;57248;47.320;15.998;2023-05-02T10:13:46;19.72;58.73
69938;DHT22;57248;47.320;15.998;2023-05-02T10:16:22;19.51;58.00
69938;DHT22;57248;47.320;15.998;2023-05-02T10:19:06;19.23;59.56
69938;DHT22;57248;47.320;15.998;2023-05-02T10:21:42;18.73;60.69
69938;DHT22;57248;47.320;15.998;2023-05-02T10:24:14;18.97;59.65
69938;DHT22;57248;47.320;15.998;2023-05-02T10:26:48;19.57;58.81
69938;DHT22;57248;47.320;15.998;2023-05-02T10:29:22;20.23;58.25
69938;DHT22;57248;47.320;15.998;2023-05-02T10:31:56;20.00;56.67
69938;DHT22;57248;47.320;15.998;2023-05-02T10:34:31;20.37;57.67
69938;DHT22;57248;47.320;15.998;2023-05-02T10:37:03;21.35;54.15
69938;DHT22;57248;47.320;15.998;2023-05-02T10:39:37;21.18;53.83
69938;DHT22;57248;47.320;15.998;2023-05-02T10:42:09;21.77;53.68
69938;DHT22;57248;47.320;15.998;2023-05-02T10:44:41;21.63;52.69
69938;DHT22;57248;47.320;15.998;2023-05-02T10:47:20;20.92;53.88
69938;DHT22;57248;47.320;15.998;2023-05-02T10:50:01;20.00;55.34
69938;DHT22;57248;47.320;15.998;2023-05-02T10:52:35;18.69;55.74
69938;DHT22;57248;47.320;15.998;2023-05-02T11:00:39;19.27;58.61
69938;DHT22;57248;47.320;15.998;2023-05-02T11:03:11;18.96;59.73
69938;DHT22;57248;47.320;15.998;2023-05-02T11:06:05;19.15;58.79
69938;DHT22;57248;47.320;15.998;2023-05-02T11:08:38;18.84;60.02
69938;DHT22;57248;47.320;15.998;2023-05-02T11:11:38;18.02;59.07
69938;DHT22;57248;47.320;15.998;2023-05-02T11:17:18;18.12;62.75
69938;DHT22;57248;47.320;15.998;2023-05-02T11:22:30;18.79;60.03
69938;DHT22;57248;47.320;15.998;2023-05-02T11:25:02;18.79;61.64
69938;DHT22;57248;47.320;15.998;2023-05-02T11:27:36;19.13;61.32
69938;DHT22;57248;47.320;15.998;2023-05-02T11:30:11;19.30;61.04
69938;DHT22;57248;47.320;15.998;2023-05-02T11:37:59;18.46;64.38
69938;DHT22;57248;47.320;15.998;2023-05-02T11:40:32;18.34;64.55
69938;DHT22;57248;47.320;15.998;2023-05-02T11:42:59;18.41;65.16
69938;DHT22;57248;47.320;15.998;2023-05-02T11:45:33;18.67;64.47
69938;DHT22;57248;47.320;15.998;2023-05-02T11:48:04;18.87;64.59
69938;DHT22;57248;47.320;15.998;2023-05-02T11:50:57;18.80;64.63
69938;DHT22;57248;47.320;15.998;2023-05-02T11:53:32;18.39;64.94
69938;DHT22;57248;47.320;15.998;2023-05-02T11:56:05;19.18;64.24
69938;DHT22;57248;47.320;15.998;2023-05-02T11:58:38;19.21;63.87
69938;DHT22;57248;47.320;15.998;2023-05-02T12:03:47;18.77;64.16
69938;DHT22;57248;47.320;15.998;2023-05-02T12:06:22;18.69;63.33
69938;DHT22;57248;47.320;15.998;2023-05-02T12:09:13;19.14;64.36
69938;DHT22;57248;47.320;15.998;2023-05-02T12:11:52;18.36;65.14
69938;DHT22;57248;47.320;15.998;2023-05-02T12:14:31;17.85;66.96
69938;DHT22;57248;47.320;15.998;2023-05-02T12:17:10;18.59;66.12
69938;DHT22;57248;47.320;15.998;2023-05-02T12:19:42;18.62;65.29
69938;DHT22;57248;47.320;15.998;2023-05-02T12:22:15;18.70;63.74
69938;DHT22;57248;47.320;15.998;2023-05-02T12:24:48;18.87;64.01
69938;DHT22;57248;47.320;15.998;2023-05-02T12:27:15;19.06;64.59
69938;DHT22;57248;47.320;15.998;2023-05-02T12:29:48;19.47;64.13
69938;DHT22;57248;47.320;15.998;2023-05-02T12:32:34;19.96;64.26
69938;DHT22;57248;47.320;15.998;2023-05-02T12:35:20;20.16;62.77
69938;DHT22;57248;47.320;15.998;2023-05-02T12:37:54;19.54;63.83
69938;DHT22;57248;47.320;15.998;2023-05-02T12:40:28;19.58;62.98
69938;DHT22;57248;47.320;15.998;2023-05-02T12:43:00;19.34;63.21
69938;DHT22;57248;47.320;15.998;2023-05-02T12:45:36;19.55;62.75
69938;DHT22;57248;47.320;15.998;2023-05-02T12:50:49;18.93;65.42
69938;DHT22;57248;47.320;15.998;2023-05-02T12:53:41;19.23;65.19
69938;DHT22;57248;47.320;15.998;2023-05-02T12:56:15;18.86;65.14
69938;DHT22;57248;47.320;15.998;2023-05-02T12:58:47;19.00;65.10
69938;DHT22;57248;47.320;15.998;2023-05-02T13:01:19;18.97;66.04
69938;DHT22;57248;47.320;15.998;2023-05-02T13:03:51;19.04;66.30
69938;DHT22;57248;47.320;15.998;2023-05-02T13:06:24;19.15;65.61
69938;DHT22;57248;47.320;15.998;2023-05-02T13:08:56;19.54;64.13
69938;DHT22;57248;47.320;15.998;2023-05-02T13:11:29;20.27;62.16
69938;DHT22;57248;47.320;15.998;2023-05-02T13:14:08;20.57;63.50
69938;DHT22;57248;47.320;15.998;2023-05-02T13:16:41;19.78;60.69
69938;DHT22;57248;47.320;15.998;2023-05-02T13:19:14;19.71;61.59
69938;DHT22;57248;47.320;15.998;2023-05-02T13:21:46;19.18;60.67
69938;DHT22;57248;47.320;15.998;2023-05-02T13:24:17;19.71;59.43
69938;DHT22;57248;47.320;15.998;2023-05-02T13:26:43;19.99;60.12
69938;DHT22;57248;47.320;15.998;2023-05-02T13:29:15;20.32;59.80
69938;DHT22;57248;47.320;15.998;2023-05-02T13:31:48;20.41;58.62
69938;DHT22;57248;47.320;15.998;2023-05-02T13:34:20;20.90;58.04
69938;DHT22;57248;47.320;15.998;2023-05-02T13:36:52;20.81;56.72
69938;DHT22;57248;47.320;15.998;2023-05-02T13:39:24;20.55;57.38
69938;DHT22;57248;47.320;15.998;2023-05-02T13:41:56;20.09;59.28
69938;DHT22;57248;47.320;15.998;2023-05-02T13:44:29;20.40;59.62
69938;DHT22;57248;47.320;15.998;2023-05-02T13:47:01;19.79;59.98
69938;DHT22;57248;47.320;15.998;2023-05-02T13:49:33;19.96;59.30
69938;DHT22;57248;47.320;15.998;2023-05-02T13:52:05;19.75;58.65
69938;DHT22;57248;47.320;15.998;2023-05-02T13:54:31;19.62;58.59
69938;DHT22;57248;47.320;15.998;2023-05-02T13:57:03;19.48;58.51
69938;DHT22;57248;47.320;15.998;2023-05-02T13:59:35;19.32;59.10
69938;DHT22;57248;47.320;15.998;2023-05-02T14:02:08;19.47;57.18
69938;DHT22;57248;47.320;15.998;2023-05-02T14:04:40;19.14;59.15
69938;DHT22;57248;47.320;15.998;2023-05-02T14:07:06;19.50;60.58
69938;DHT22;57248;47.320;15.998;2023-05-02T14:09:39;20.10;58.67
69938;DHT22;57248;47.320;15.998;2023-05-02T14:12:10;19.93;58.08
69938;DHT22;57248;47.320;15.998;2023-05-02T14:14:43;20.06;59.14
69938;DHT22;57248;47.320;15.998;2023-05-02T14:17:22;20.34;58.39
69938;DHT22;57248;47.320;15.998;2023-05-02T14:19:58;20.12;59.29
69938;DHT22;57248;47.320;15.998;2023-05-02T14:22:30;20.55;57.89
69938;DHT22;57248;47.320;15.998;2023-05-02T14:25:03;20.58;56.62
69938;DHT22;57248;47.320;15.998;2023-05-02T14:27:34;20.27;60.07
69938;DHT22;57248;47.320;15.998;2023-05-02T14:30:07;20.37;60.38
69938;DHT22;57248;47.320;15.998;2023-05-02T14:32:39;20.41;62.91
69938;DHT22;57248;47.320;15.998;2023-05-02T14:35:11;20.26;59.83
69938;DHT22;57248;47.320;15.998;2023-05-02T14:37:44;20.64;59.49
69938;DHT22;57248;47.320;15.998;2023-05-02T14:40:18;20.61;58.48
69938;DHT22;57248;47.320;15.998;2023-05-02T14:42:51;20.71;58.15
69938;DHT22;57248;47.320;15.998;2023-05-02T14:45:23;20.13;58.76
69938;DHT22;57248;47.320;15.998;2023-05-02T14:47:55;20.50;59.02
69938;DHT22;57248;47.320;15.998;2023-05-02T14:50:28;20.50;58.81
69938;DHT22;57248;47.320;15.998;2023-05-02T14:52:54;20.10;56.73
69938;DHT22;57248;47.320;15.998;2023-05-02T14:55:26;20.24;58.27
69938;DHT22;57248;47.320;15.998;2023-05-02T14:57:58;20.54;57.61
69938;DHT22;57248;47.320;15.998;2023-05-02T15:00:24;20.40;57.22
69938;DHT22;57248;47.320;15.998;2023-05-02T15:02:56;20.10;58.63
69938;DHT22;57248;47.320;15.998;2023-05-02T15:05:29;19.83;59.03
69938;DHT22;57248;47.320;15.998;2023-05-02T15:08:00;19.73;58.00
69938;DHT22;57248;47.320;15.998;2023-05-02T15:10:55;19.69;58.35
69938;DHT22;57248;47.320;15.998;2023-05-02T15:13:27;19.51;59.73
69938;DHT22;57248;47.320;15.998;2023-05-02T15:16:08;19.32;59.50
69938;DHT22;57248;47.320;15.998;2023-05-02T15:18:40;19.54;60.31
69938;DHT22;57248;47.320;15.998;2023-05-02T15:21:12;19.07;60.57
69938;DHT22;57248;47.320;15.998;2023-05-02T15:23:44;19.20;59.11
69938;DHT22;57248;47.320;15.998;2023-05-02T15:26:17;18.92;61.15
69938;DHT22;57248;47.320;15.998;2023-05-02T15:28:43;18.67;60.52
69938;DHT22;57248;47.320;15.998;2023-05-02T15:31:14;18.43;59.90
69938;DHT22;57248;47.320;15.998;2023-05-02T15:33:46;18.28;61.34
69938;DHT22;57248;47.320;15.998;2023-05-02T15:36:20;18.32;60.53
69938;DHT22;57248;47.320;15.998;2023-05-02T15:38:52;19.17;61.31
69938;DHT22;57248;47.320;15.998;2023-05-02T15:41:24;18.87;60.52
69938;DHT22;57248;47.320;15.998;2023-05-02T15:44:00;18.70;61.22
69938;DHT22;57248;47.320;15.998;2023-05-02T15:46:31;18.80;62.39
69938;DHT22;57248;47.320;15.998;2023-05-02T15:49:05;18.70;60.63
69938;DHT22;57248;47.320;15.998;2023-05-02T15:51:36;18.77;60.61
69938;DHT22;57248;47.320;15.998;2023-05-02T15:54:10;18.53;61.39
69938;DHT22;57248;47.320;15.998;2023-05-02T15:56:41;18.32;62.14
69938;DHT22;57248;47.320;15.998;2023-05-02T15:59:13;18.22;62.33
69938;DHT22;57248;47.320;15.998;2023-05-02T16:01:45;18.11;61.56
69938;DHT22;57248;47.320;15.998;2023-05-02T16:04:17;18.26;61.79
69938;DHT22;57248;47.320;15.998;2023-05-02T16:06:49;18.16;61.41
69938;DHT22;57248;47.320;15.998;2023-05-02T16:09:22;17.88;61.95
69938;DHT22;57248;47.320;15.998;2023-05-02T16:11:53;17.70;62.08
69938;DHT22;57248;47.320;15.998;2023-05-02T16:14:26;17.46;63.08
69938;DHT22;57248;47.320;15.998;2023-05-02T16:17:05;17.66;62.46
69938;DHT22;57248;47.320;15.998;2023-05-02T16:19:37;17.49;62.12
69938;DHT22;57248;47.320;15.998;2023-05-02T16:22:09;17.26;63.07
69938;DHT22;57248;47.320;15.998;2023-05-02T16:24:41;17.40;61.79
69938;DHT22;57248;47.320;15.998;2023-05-02T16:27:13;17.35;64.14
69938;DHT22;57248;47.320;15.998;2023-05-02T16:29:45;17.09;62.29
69938;DHT22;57248;47.320;15.998;2023-05-02T16:32:17;16.91;63.20
69938;DHT22;57248;47.320;15.998;2023-05-02T16:34:43;16.94;62.92
69938;DHT22;57248;47.320;15.998;2023-05-02T16:37:15;16.82;63.32
69938;DHT22;57248;47.320;15.998;2023-05-02T16:39:47;16.78;64.30
69938;DHT22;57248;47.320;15.998;2023-05-02T16:42:19;16.65;63.58